aviador You're here:

KCDI Decoded Metar

in
Report Time2017-04-30 14:34:00
UTC Time2017-04-30 14:55:22
Flight Rules vfr VFR
Wind190° at 07 kt
W.Decomp.*RWY 22: 6.1 kt HW 3.5 kt LCW
Visibility9999 m
Phenomena:N/A
Clouds:N/A
Expected CloudBase > 2,800 ft AGL from Temp-Dew spread
CeilingNone
Temp26°C
Dew Point19°C (65% RH)
QNH1016 hPa
Raw Report
KCDI 301434Z AUTO 19007KT 10SM CLR 26/19 A3000 RMK AO2
T02620190=

Extra information for KCDI:More info

Social comments